Miskolc, Hungary
Current Conditions -  °F | °C
As of 10:30 PM on Friday 28 Nov 2014 (Local Time) from LZKZ Reporting Station
Broken Clouds Broken Clouds  
Wind Chill: 28°   Ceiling: 4700
Heat Index: 34°   Visibility: 6mi
Dew Point: 28°   Wind: 7mph
Humidity: 81%   Direction: 20°NNE
Pressure: 30.15"   Gusts: NA
Location:  48.1°N, 20.79°E
Report Text: LZKZ 282030Z 02006KT 9999 BKN047 01/M02 Q1021
Loading
Personal Weather Stations






























Interactive Weather Map New forecast layout! Learn more

10-Day Weather Forecast

Advertisements
Track Severe Weather on mobile